sensor_id;sensor_type;location;lat;lon;timestamp;P1;durP1;ratioP1;P2;durP2;ratioP2
42614;SDS011;28754;47.700;7.924;2022-12-18T00:00:41;11.50;;;7.30;;
42614;SDS011;28754;47.700;7.924;2022-12-18T00:03:29;11.53;;;7.27;;
42614;SDS011;28754;47.700;7.924;2022-12-18T00:06:16;12.70;;;7.03;;
42614;SDS011;28754;47.700;7.924;2022-12-18T00:09:04;13.00;;;7.17;;
42614;SDS011;28754;47.700;7.924;2022-12-18T00:11:50;13.37;;;6.57;;
42614;SDS011;28754;47.700;7.924;2022-12-18T00:14:37;10.80;;;7.00;;
42614;SDS011;28754;47.700;7.924;2022-12-18T00:17:24;16.80;;;7.77;;
42614;SDS011;28754;47.700;7.924;2022-12-18T00:20:10;14.17;;;8.73;;
42614;SDS011;28754;47.700;7.924;2022-12-18T00:22:57;16.30;;;8.50;;
42614;SDS011;28754;47.700;7.924;2022-12-18T00:25:47;13.57;;;7.37;;
42614;SDS011;28754;47.700;7.924;2022-12-18T00:29:06;11.83;;;6.73;;
42614;SDS011;28754;47.700;7.924;2022-12-18T00:32:03;15.00;;;7.70;;
42614;SDS011;28754;47.700;7.924;2022-12-18T00:34:51;13.73;;;7.60;;
42614;SDS011;28754;47.700;7.924;2022-12-18T00:37:39;13.77;;;7.50;;
42614;SDS011;28754;47.700;7.924;2022-12-18T00:40:27;15.37;;;8.17;;
42614;SDS011;28754;47.700;7.924;2022-12-18T00:43:15;13.17;;;6.83;;
42614;SDS011;28754;47.700;7.924;2022-12-18T00:46:02;13.30;;;7.37;;
42614;SDS011;28754;47.700;7.924;2022-12-18T00:48:49;9.90;;;6.07;;
42614;SDS011;28754;47.700;7.924;2022-12-18T00:51:36;17.63;;;8.53;;
42614;SDS011;28754;47.700;7.924;2022-12-18T00:54:23;13.77;;;7.47;;
42614;SDS011;28754;47.700;7.924;2022-12-18T00:57:09;14.67;;;8.07;;
42614;SDS011;28754;47.700;7.924;2022-12-18T00:59:56;13.07;;;6.53;;
42614;SDS011;28754;47.700;7.924;2022-12-18T01:02:43;12.10;;;7.23;;
42614;SDS011;28754;47.700;7.924;2022-12-18T01:05:30;14.77;;;8.07;;
42614;SDS011;28754;47.700;7.924;2022-12-18T01:08:17;13.13;;;7.33;;
42614;SDS011;28754;47.700;7.924;2022-12-18T01:11:08;11.53;;;7.07;;
42614;SDS011;28754;47.700;7.924;2022-12-18T01:13:57;12.07;;;6.90;;
42614;SDS011;28754;47.700;7.924;2022-12-18T01:16:44;14.57;;;7.80;;
42614;SDS011;28754;47.700;7.924;2022-12-18T01:19:31;7.90;;;5.33;;
42614;SDS011;28754;47.700;7.924;2022-12-18T01:22:18;9.00;;;6.13;;
42614;SDS011;28754;47.700;7.924;2022-12-18T01:25:05;13.73;;;7.63;;
42614;SDS011;28754;47.700;7.924;2022-12-18T01:27:52;13.90;;;6.83;;
42614;SDS011;28754;47.700;7.924;2022-12-18T01:30:38;13.63;;;6.77;;
42614;SDS011;28754;47.700;7.924;2022-12-18T01:33:25;12.77;;;7.00;;
42614;SDS011;28754;47.700;7.924;2022-12-18T01:36:19;12.63;;;7.20;;
42614;SDS011;28754;47.700;7.924;2022-12-18T01:39:10;11.83;;;7.27;;
42614;SDS011;28754;47.700;7.924;2022-12-18T01:42:09;12.03;;;7.33;;
42614;SDS011;28754;47.700;7.924;2022-12-18T01:48:03;13.17;;;7.93;;
42614;SDS011;28754;47.700;7.924;2022-12-18T01:50:54;11.30;;;6.00;;
42614;SDS011;28754;47.700;7.924;2022-12-18T01:53:42;11.70;;;5.30;;
42614;SDS011;28754;47.700;7.924;2022-12-18T01:56:32;25.83;;;11.03;;
42614;SDS011;28754;47.700;7.924;2022-12-18T01:59:19;13.20;;;6.80;;
42614;SDS011;28754;47.700;7.924;2022-12-18T02:02:06;12.77;;;6.70;;
42614;SDS011;28754;47.700;7.924;2022-12-18T02:04:54;12.27;;;8.07;;
42614;SDS011;28754;47.700;7.924;2022-12-18T02:11:25;17.13;;;8.77;;
42614;SDS011;28754;47.700;7.924;2022-12-18T02:14:35;17.10;;;9.10;;
42614;SDS011;28754;47.700;7.924;2022-12-18T02:17:47;11.47;;;6.53;;
42614;SDS011;28754;47.700;7.924;2022-12-18T02:20:48;17.77;;;8.47;;
42614;SDS011;28754;47.700;7.924;2022-12-18T02:23:56;20.63;;;10.50;;
42614;SDS011;28754;47.700;7.924;2022-12-18T02:27:10;13.27;;;7.87;;
42614;SDS011;28754;47.700;7.924;2022-12-18T02:29:59;12.83;;;8.03;;
42614;SDS011;28754;47.700;7.924;2022-12-18T02:32:49;10.70;;;6.33;;
42614;SDS011;28754;47.700;7.924;2022-12-18T02:35:40;14.90;;;7.83;;
42614;SDS011;28754;47.700;7.924;2022-12-18T02:38:28;9.70;;;6.33;;
42614;SDS011;28754;47.700;7.924;2022-12-18T02:41:22;14.70;;;6.97;;
42614;SDS011;28754;47.700;7.924;2022-12-18T02:44:12;12.20;;;7.07;;
42614;SDS011;28754;47.700;7.924;2022-12-18T02:47:01;12.70;;;7.23;;
42614;SDS011;28754;47.700;7.924;2022-12-18T02:53:36;9.97;;;6.33;;
42614;SDS011;28754;47.700;7.924;2022-12-18T02:56:38;10.73;;;7.13;;
42614;SDS011;28754;47.700;7.924;2022-12-18T03:00:07;11.65;;;6.50;;
42614;SDS011;28754;47.700;7.924;2022-12-18T03:03:33;9.03;;;5.57;;
42614;SDS011;28754;47.700;7.924;2022-12-18T03:07:18;11.70;;;6.93;;
42614;SDS011;28754;47.700;7.924;2022-12-18T03:10:31;12.90;;;6.73;;
42614;SDS011;28754;47.700;7.924;2022-12-18T03:16:19;19.87;;;9.57;;
42614;SDS011;28754;47.700;7.924;2022-12-18T03:19:15;16.40;;;7.00;;
42614;SDS011;28754;47.700;7.924;2022-12-18T03:22:14;20.85;;;9.00;;
42614;SDS011;28754;47.700;7.924;2022-12-18T03:25:13;14.10;;;7.47;;
42614;SDS011;28754;47.700;7.924;2022-12-18T03:28:02;10.60;;;6.13;;
42614;SDS011;28754;47.700;7.924;2022-12-18T03:30:58;15.60;;;8.00;;
42614;SDS011;28754;47.700;7.924;2022-12-18T03:34:01;19.30;;;9.63;;
42614;SDS011;28754;47.700;7.924;2022-12-18T03:37:03;20.37;;;10.93;;
42614;SDS011;28754;47.700;7.924;2022-12-18T03:39:52;25.20;;;11.27;;
42614;SDS011;28754;47.700;7.924;2022-12-18T03:42:56;20.77;;;11.60;;
42614;SDS011;28754;47.700;7.924;2022-12-18T03:46:00;27.90;;;12.77;;
42614;SDS011;28754;47.700;7.924;2022-12-18T03:49:11;21.63;;;11.27;;
42614;SDS011;28754;47.700;7.924;2022-12-18T03:52:12;20.80;;;11.50;;
42614;SDS011;28754;47.700;7.924;2022-12-18T03:55:27;23.03;;;11.57;;
42614;SDS011;28754;47.700;7.924;2022-12-18T03:58:23;16.83;;;10.67;;
42614;SDS011;28754;47.700;7.924;2022-12-18T04:01:25;24.67;;;11.43;;
42614;SDS011;28754;47.700;7.924;2022-12-18T04:04:25;25.97;;;11.47;;
42614;SDS011;28754;47.700;7.924;2022-12-18T04:07:19;23.43;;;12.07;;
42614;SDS011;28754;47.700;7.924;2022-12-18T04:10:09;22.20;;;13.80;;
42614;SDS011;28754;47.700;7.924;2022-12-18T04:13:01;25.50;;;13.73;;
42614;SDS011;28754;47.700;7.924;2022-12-18T04:15:49;23.97;;;11.43;;
42614;SDS011;28754;47.700;7.924;2022-12-18T04:18:43;15.40;;;8.77;;
42614;SDS011;28754;47.700;7.924;2022-12-18T04:21:33;24.50;;;11.77;;
42614;SDS011;28754;47.700;7.924;2022-12-18T04:24:20;20.00;;;11.07;;
42614;SDS011;28754;47.700;7.924;2022-12-18T04:27:29;22.87;;;11.40;;
42614;SDS011;28754;47.700;7.924;2022-12-18T04:30:18;18.73;;;10.73;;
42614;SDS011;28754;47.700;7.924;2022-12-18T04:33:12;21.03;;;11.53;;
42614;SDS011;28754;47.700;7.924;2022-12-18T04:35:59;20.00;;;10.13;;
42614;SDS011;28754;47.700;7.924;2022-12-18T04:38:47;21.23;;;10.67;;
42614;SDS011;28754;47.700;7.924;2022-12-18T04:41:36;20.80;;;10.43;;
42614;SDS011;28754;47.700;7.924;2022-12-18T04:44:24;17.10;;;8.63;;
42614;SDS011;28754;47.700;7.924;2022-12-18T04:47:10;17.70;;;10.00;;
42614;SDS011;28754;47.700;7.924;2022-12-18T04:49:57;22.13;;;10.47;;
42614;SDS011;28754;47.700;7.924;2022-12-18T04:52:44;19.73;;;10.60;;
42614;SDS011;28754;47.700;7.924;2022-12-18T04:55:33;16.67;;;9.87;;
42614;SDS011;28754;47.700;7.924;2022-12-18T04:58:19;18.43;;;10.23;;
42614;SDS011;28754;47.700;7.924;2022-12-18T05:05:50;19.17;;;10.27;;
42614;SDS011;28754;47.700;7.924;2022-12-18T05:08:38;16.03;;;8.73;;
42614;SDS011;28754;47.700;7.924;2022-12-18T05:11:25;17.53;;;8.97;;
42614;SDS011;28754;47.700;7.924;2022-12-18T05:14:12;13.53;;;7.87;;
42614;SDS011;28754;47.700;7.924;2022-12-18T05:16:59;17.30;;;9.27;;
42614;SDS011;28754;47.700;7.924;2022-12-18T05:19:49;15.70;;;8.93;;
42614;SDS011;28754;47.700;7.924;2022-12-18T05:22:36;17.33;;;8.33;;
42614;SDS011;28754;47.700;7.924;2022-12-18T05:25:23;22.53;;;11.17;;
42614;SDS011;28754;47.700;7.924;2022-12-18T05:28:10;18.47;;;9.80;;
42614;SDS011;28754;47.700;7.924;2022-12-18T05:30:58;21.73;;;12.73;;
42614;SDS011;28754;47.700;7.924;2022-12-18T05:33:47;19.87;;;9.97;;
42614;SDS011;28754;47.700;7.924;2022-12-18T05:36:34;19.90;;;9.10;;
42614;SDS011;28754;47.700;7.924;2022-12-18T05:39:21;20.37;;;10.40;;
42614;SDS011;28754;47.700;7.924;2022-12-18T05:42:08;22.87;;;12.10;;
42614;SDS011;28754;47.700;7.924;2022-12-18T05:44:54;22.47;;;12.00;;
42614;SDS011;28754;47.700;7.924;2022-12-18T05:47:41;25.87;;;12.13;;
42614;SDS011;28754;47.700;7.924;2022-12-18T05:50:28;22.40;;;10.07;;
42614;SDS011;28754;47.700;7.924;2022-12-18T05:53:20;26.70;;;12.60;;
42614;SDS011;28754;47.700;7.924;2022-12-18T05:56:10;19.50;;;11.57;;
42614;SDS011;28754;47.700;7.924;2022-12-18T05:59:04;28.23;;;11.93;;
42614;SDS011;28754;47.700;7.924;2022-12-18T06:01:51;20.30;;;11.40;;
42614;SDS011;28754;47.700;7.924;2022-12-18T06:04:37;25.47;;;12.47;;
42614;SDS011;28754;47.700;7.924;2022-12-18T06:07:24;23.70;;;11.97;;
42614;SDS011;28754;47.700;7.924;2022-12-18T06:10:11;24.03;;;13.63;;
42614;SDS011;28754;47.700;7.924;2022-12-18T06:12:58;24.40;;;12.80;;
42614;SDS011;28754;47.700;7.924;2022-12-18T06:15:49;23.80;;;11.67;;
42614;SDS011;28754;47.700;7.924;2022-12-18T06:18:37;29.40;;;14.90;;
42614;SDS011;28754;47.700;7.924;2022-12-18T06:21:24;29.37;;;14.87;;
42614;SDS011;28754;47.700;7.924;2022-12-18T06:24:11;26.70;;;13.53;;
42614;SDS011;28754;47.700;7.924;2022-12-18T06:26:58;25.63;;;14.27;;
42614;SDS011;28754;47.700;7.924;2022-12-18T06:29:45;29.53;;;16.33;;
42614;SDS011;28754;47.700;7.924;2022-12-18T06:32:37;35.13;;;16.60;;
42614;SDS011;28754;47.700;7.924;2022-12-18T06:35:28;28.03;;;15.57;;
42614;SDS011;28754;47.700;7.924;2022-12-18T06:38:15;25.40;;;13.53;;
42614;SDS011;28754;47.700;7.924;2022-12-18T06:41:12;25.87;;;13.10;;
42614;SDS011;28754;47.700;7.924;2022-12-18T06:44:02;25.47;;;14.00;;
42614;SDS011;28754;47.700;7.924;2022-12-18T06:46:49;22.83;;;11.87;;
42614;SDS011;28754;47.700;7.924;2022-12-18T06:49:36;23.57;;;12.60;;
42614;SDS011;28754;47.700;7.924;2022-12-18T06:52:22;24.33;;;12.33;;
42614;SDS011;28754;47.700;7.924;2022-12-18T06:55:09;23.27;;;11.87;;
42614;SDS011;28754;47.700;7.924;2022-12-18T06:57:57;21.53;;;11.67;;
42614;SDS011;28754;47.700;7.924;2022-12-18T07:00:43;22.40;;;11.73;;
42614;SDS011;28754;47.700;7.924;2022-12-18T07:03:30;26.53;;;11.37;;
42614;SDS011;28754;47.700;7.924;2022-12-18T07:06:18;27.53;;;12.37;;
42614;SDS011;28754;47.700;7.924;2022-12-18T07:09:07;22.73;;;12.10;;
42614;SDS011;28754;47.700;7.924;2022-12-18T07:11:54;23.67;;;12.60;;
42614;SDS011;28754;47.700;7.924;2022-12-18T07:14:40;27.47;;;12.87;;
42614;SDS011;28754;47.700;7.924;2022-12-18T07:17:27;23.93;;;10.83;;
42614;SDS011;28754;47.700;7.924;2022-12-18T07:20:15;19.33;;;11.20;;
42614;SDS011;28754;47.700;7.924;2022-12-18T07:23:02;27.97;;;14.07;;
42614;SDS011;28754;47.700;7.924;2022-12-18T07:25:53;19.13;;;10.90;;
42614;SDS011;28754;47.700;7.924;2022-12-18T07:28:43;18.93;;;10.00;;
42614;SDS011;28754;47.700;7.924;2022-12-18T07:32:10;21.47;;;11.07;;
42614;SDS011;28754;47.700;7.924;2022-12-18T07:35:02;32.40;;;16.27;;
42614;SDS011;28754;47.700;7.924;2022-12-18T07:37:53;23.53;;;13.03;;
42614;SDS011;28754;47.700;7.924;2022-12-18T07:40:48;19.80;;;10.17;;
42614;SDS011;28754;47.700;7.924;2022-12-18T07:43:38;28.47;;;13.03;;
42614;SDS011;28754;47.700;7.924;2022-12-18T07:46:39;155.37;;;66.63;;
42614;SDS011;28754;47.700;7.924;2022-12-18T07:50:02;128.50;;;55.50;;
42614;SDS011;28754;47.700;7.924;2022-12-18T07:53:41;141.52;;;53.70;;
42614;SDS011;28754;47.700;7.924;2022-12-18T07:57:03;133.00;;;49.93;;
42614;SDS011;28754;47.700;7.924;2022-12-18T07:59:53;69.07;;;28.70;;
42614;SDS011;28754;47.700;7.924;2022-12-18T08:02:40;60.60;;;26.33;;
42614;SDS011;28754;47.700;7.924;2022-12-18T08:06:08;45.00;;;23.83;;
42614;SDS011;28754;47.700;7.924;2022-12-18T08:09:06;87.53;;;32.23;;
42614;SDS011;28754;47.700;7.924;2022-12-18T08:12:21;100.57;;;38.27;;
42614;SDS011;28754;47.700;7.924;2022-12-18T08:15:36;78.83;;;31.17;;
42614;SDS011;28754;47.700;7.924;2022-12-18T08:18:51;44.87;;;20.87;;
42614;SDS011;28754;47.700;7.924;2022-12-18T08:22:05;94.37;;;38.07;;
42614;SDS011;28754;47.700;7.924;2022-12-18T08:25:50;99.07;;;44.13;;
42614;SDS011;28754;47.700;7.924;2022-12-18T08:29:32;80.77;;;34.97;;
42614;SDS011;28754;47.700;7.924;2022-12-18T08:32:52;133.57;;;55.03;;
42614;SDS011;28754;47.700;7.924;2022-12-18T08:35:59;27.63;;;14.02;;
42614;SDS011;28754;47.700;7.924;2022-12-18T08:47:08;29.60;;;17.33;;
42614;SDS011;28754;47.700;7.924;2022-12-18T08:50:13;29.77;;;14.93;;
42614;SDS011;28754;47.700;7.924;2022-12-18T08:53:01;25.00;;;14.60;;
42614;SDS011;28754;47.700;7.924;2022-12-18T08:56:10;25.58;;;15.65;;
42614;SDS011;28754;47.700;7.924;2022-12-18T08:59:31;26.83;;;15.82;;
42614;SDS011;28754;47.700;7.924;2022-12-18T09:02:59;25.33;;;14.30;;
42614;SDS011;28754;47.700;7.924;2022-12-18T09:06:38;27.75;;;14.98;;
42614;SDS011;28754;47.700;7.924;2022-12-18T09:09:28;22.90;;;15.13;;
42614;SDS011;28754;47.700;7.924;2022-12-18T09:12:16;26.77;;;15.10;;
42614;SDS011;28754;47.700;7.924;2022-12-18T09:15:05;23.15;;;15.35;;
42614;SDS011;28754;47.700;7.924;2022-12-18T09:17:53;25.55;;;14.93;;
42614;SDS011;28754;47.700;7.924;2022-12-18T09:37:07;26.50;;;17.58;;
42614;SDS011;28754;47.700;7.924;2022-12-18T11:04:07;19.08;;;14.32;;
42614;SDS011;28754;47.700;7.924;2022-12-18T11:06:59;21.00;;;13.50;;
42614;SDS011;28754;47.700;7.924;2022-12-18T11:10:00;16.15;;;12.57;;
42614;SDS011;28754;47.700;7.924;2022-12-18T11:12:47;19.95;;;13.57;;
42614;SDS011;28754;47.700;7.924;2022-12-18T11:15:35;18.63;;;13.45;;
42614;SDS011;28754;47.700;7.924;2022-12-18T11:18:24;19.27;;;12.73;;
42614;SDS011;28754;47.700;7.924;2022-12-18T11:21:17;19.05;;;12.98;;
42614;SDS011;28754;47.700;7.924;2022-12-18T11:24:04;21.48;;;13.63;;
42614;SDS011;28754;47.700;7.924;2022-12-18T11:27:06;19.35;;;13.85;;
42614;SDS011;28754;47.700;7.924;2022-12-18T11:30:24;18.30;;;13.63;;
42614;SDS011;28754;47.700;7.924;2022-12-18T11:33:19;20.35;;;13.70;;
42614;SDS011;28754;47.700;7.924;2022-12-18T11:36:08;22.25;;;14.80;;
42614;SDS011;28754;47.700;7.924;2022-12-18T11:38:56;19.25;;;13.20;;
42614;SDS011;28754;47.700;7.924;2022-12-18T11:41:53;20.08;;;13.25;;
42614;SDS011;28754;47.700;7.924;2022-12-18T11:45:00;19.08;;;13.35;;
42614;SDS011;28754;47.700;7.924;2022-12-18T11:48:13;21.80;;;15.75;;
42614;SDS011;28754;47.700;7.924;2022-12-18T11:51:28;17.55;;;12.55;;
42614;SDS011;28754;47.700;7.924;2022-12-18T11:54:24;18.85;;;12.98;;
42614;SDS011;28754;47.700;7.924;2022-12-18T12:00:14;22.67;;;15.75;;
42614;SDS011;28754;47.700;7.924;2022-12-18T12:06:40;19.30;;;12.48;;
42614;SDS011;28754;47.700;7.924;2022-12-18T12:17:36;20.85;;;14.73;;
42614;SDS011;28754;47.700;7.924;2022-12-18T12:20:43;28.08;;;17.88;;
42614;SDS011;28754;47.700;7.924;2022-12-18T12:33:15;22.38;;;13.60;;
42614;SDS011;28754;47.700;7.924;2022-12-18T12:40:23;17.42;;;12.82;;
42614;SDS011;28754;47.700;7.924;2022-12-18T12:43:21;17.70;;;11.82;;
42614;SDS011;28754;47.700;7.924;2022-12-18T12:46:34;14.32;;;10.73;;
42614;SDS011;28754;47.700;7.924;2022-12-18T12:50:04;16.25;;;11.00;;
42614;SDS011;28754;47.700;7.924;2022-12-18T12:57:29;17.33;;;11.88;;
42614;SDS011;28754;47.700;7.924;2022-12-18T13:00:47;18.95;;;11.85;;
42614;SDS011;28754;47.700;7.924;2022-12-18T13:07:37;13.82;;;9.80;;
42614;SDS011;28754;47.700;7.924;2022-12-18T13:14:46;16.45;;;9.32;;
42614;SDS011;28754;47.700;7.924;2022-12-18T13:17:35;16.98;;;11.25;;
42614;SDS011;28754;47.700;7.924;2022-12-18T13:20:22;21.13;;;12.60;;
42614;SDS011;28754;47.700;7.924;2022-12-18T13:29:09;19.15;;;11.35;;
42614;SDS011;28754;47.700;7.924;2022-12-18T13:36:13;11.73;;;7.95;;
42614;SDS011;28754;47.700;7.924;2022-12-18T13:39:15;16.05;;;9.75;;
42614;SDS011;28754;47.700;7.924;2022-12-18T13:45:35;16.55;;;11.05;;
42614;SDS011;28754;47.700;7.924;2022-12-18T13:48:35;12.35;;;9.65;;
42614;SDS011;28754;47.700;7.924;2022-12-18T13:51:24;14.73;;;9.25;;
42614;SDS011;28754;47.700;7.924;2022-12-18T14:50:28;8.70;;;5.25;;
42614;SDS011;28754;47.700;7.924;2022-12-18T14:53:18;9.82;;;5.22;;
42614;SDS011;28754;47.700;7.924;2022-12-18T14:59:03;7.53;;;4.18;;
42614;SDS011;28754;47.700;7.924;2022-12-18T15:01:59;8.20;;;5.07;;
42614;SDS011;28754;47.700;7.924;2022-12-18T15:05:14;16.55;;;11.25;;
42614;SDS011;28754;47.700;7.924;2022-12-18T15:08:37;24.20;;;15.98;;
42614;SDS011;28754;47.700;7.924;2022-12-18T15:11:25;17.88;;;11.98;;
42614;SDS011;28754;47.700;7.924;2022-12-18T15:14:32;11.98;;;8.98;;
42614;SDS011;28754;47.700;7.924;2022-12-18T15:17:28;12.00;;;8.90;;
42614;SDS011;28754;47.700;7.924;2022-12-18T15:20:22;10.15;;;9.02;;
42614;SDS011;28754;47.700;7.924;2022-12-18T15:26:47;7.32;;;4.25;;
42614;SDS011;28754;47.700;7.924;2022-12-18T15:29:39;9.27;;;5.13;;
42614;SDS011;28754;47.700;7.924;2022-12-18T15:32:26;6.40;;;4.47;;
42614;SDS011;28754;47.700;7.924;2022-12-18T15:38:09;7.05;;;4.22;;
42614;SDS011;28754;47.700;7.924;2022-12-18T15:40:55;6.05;;;3.70;;
42614;SDS011;28754;47.700;7.924;2022-12-18T15:43:44;6.22;;;4.20;;
42614;SDS011;28754;47.700;7.924;2022-12-18T15:46:45;5.97;;;3.65;;
42614;SDS011;28754;47.700;7.924;2022-12-18T15:49:32;7.72;;;4.72;;
42614;SDS011;28754;47.700;7.924;2022-12-18T15:52:19;13.30;;;9.32;;
42614;SDS011;28754;47.700;7.924;2022-12-18T15:55:12;11.40;;;7.85;;
42614;SDS011;28754;47.700;7.924;2022-12-18T15:58:20;13.65;;;8.50;;
42614;SDS011;28754;47.700;7.924;2022-12-18T16:01:07;15.40;;;10.40;;
42614;SDS011;28754;47.700;7.924;2022-12-18T16:03:56;13.30;;;7.63;;
42614;SDS011;28754;47.700;7.924;2022-12-18T16:20:52;10.65;;;7.07;;
42614;SDS011;28754;47.700;7.924;2022-12-18T16:33:23;13.85;;;8.00;;
42614;SDS011;28754;47.700;7.924;2022-12-18T16:36:42;39.90;;;21.65;;
42614;SDS011;28754;47.700;7.924;2022-12-18T16:39:40;27.95;;;15.55;;
42614;SDS011;28754;47.700;7.924;2022-12-18T16:42:40;29.10;;;16.73;;
42614;SDS011;28754;47.700;7.924;2022-12-18T17:26:35;9.55;;;6.30;;
42614;SDS011;28754;47.700;7.924;2022-12-18T17:29:39;7.38;;;5.78;;
42614;SDS011;28754;47.700;7.924;2022-12-18T17:37:26;9.02;;;5.32;;
42614;SDS011;28754;47.700;7.924;2022-12-18T17:40:12;9.65;;;4.75;;
42614;SDS011;28754;47.700;7.924;2022-12-18T17:43:23;11.00;;;7.97;;
42614;SDS011;28754;47.700;7.924;2022-12-18T17:46:42;13.35;;;7.97;;
42614;SDS011;28754;47.700;7.924;2022-12-18T17:49:31;7.78;;;5.53;;
42614;SDS011;28754;47.700;7.924;2022-12-18T17:52:18;9.77;;;6.05;;
42614;SDS011;28754;47.700;7.924;2022-12-18T17:55:07;6.05;;;4.25;;
42614;SDS011;28754;47.700;7.924;2022-12-18T17:58:04;9.05;;;5.35;;
42614;SDS011;28754;47.700;7.924;2022-12-18T18:16:36;5.07;;;3.05;;
42614;SDS011;28754;47.700;7.924;2022-12-18T18:19:31;3.95;;;3.00;;
42614;SDS011;28754;47.700;7.924;2022-12-18T18:35:23;3.25;;;2.80;;
42614;SDS011;28754;47.700;7.924;2022-12-18T18:38:13;5.28;;;3.00;;
42614;SDS011;28754;47.700;7.924;2022-12-18T18:41:03;12.68;;;7.13;;
42614;SDS011;28754;47.700;7.924;2022-12-18T18:44:20;6.43;;;3.80;;
42614;SDS011;28754;47.700;7.924;2022-12-18T18:51:57;4.38;;;2.58;;
42614;SDS011;28754;47.700;7.924;2022-12-18T18:54:55;8.80;;;4.90;;
42614;SDS011;28754;47.700;7.924;2022-12-18T18:57:44;21.33;;;11.27;;
42614;SDS011;28754;47.700;7.924;2022-12-18T19:00:38;19.80;;;10.07;;
42614;SDS011;28754;47.700;7.924;2022-12-18T19:03:28;9.27;;;5.25;;
42614;SDS011;28754;47.700;7.924;2022-12-18T19:06:32;7.00;;;3.57;;
42614;SDS011;28754;47.700;7.924;2022-12-18T19:09:32;4.95;;;2.75;;
42614;SDS011;28754;47.700;7.924;2022-12-18T19:12:47;5.45;;;3.25;;
42614;SDS011;28754;47.700;7.924;2022-12-18T19:28:20;7.78;;;4.97;;
42614;SDS011;28754;47.700;7.924;2022-12-18T19:58:26;3.90;;;2.30;;
42614;SDS011;28754;47.700;7.924;2022-12-18T20:15:28;3.75;;;2.53;;
42614;SDS011;28754;47.700;7.924;2022-12-18T20:20:12;4.03;;;2.65;;
42614;SDS011;28754;47.700;7.924;2022-12-18T20:32:33;6.95;;;3.13;;
42614;SDS011;28754;47.700;7.924;2022-12-18T20:35:25;3.80;;;2.53;;
42614;SDS011;28754;47.700;7.924;2022-12-18T20:38:13;3.65;;;2.60;;
42614;SDS011;28754;47.700;7.924;2022-12-18T20:41:19;5.13;;;2.75;;
42614;SDS011;28754;47.700;7.924;2022-12-18T20:53:03;4.35;;;2.42;;
42614;SDS011;28754;47.700;7.924;2022-12-18T20:56:06;4.18;;;2.70;;
42614;SDS011;28754;47.700;7.924;2022-12-18T20:58:57;9.05;;;5.32;;
42614;SDS011;28754;47.700;7.924;2022-12-18T21:01:47;10.38;;;5.85;;
42614;SDS011;28754;47.700;7.924;2022-12-18T21:04:34;9.43;;;4.97;;
42614;SDS011;28754;47.700;7.924;2022-12-18T21:07:21;9.50;;;5.22;;
42614;SDS011;28754;47.700;7.924;2022-12-18T21:10:08;5.60;;;3.85;;
42614;SDS011;28754;47.700;7.924;2022-12-18T21:12:55;8.23;;;4.10;;
42614;SDS011;28754;47.700;7.924;2022-12-18T21:15:42;5.03;;;3.30;;
42614;SDS011;28754;47.700;7.924;2022-12-18T21:18:29;5.00;;;2.83;;
42614;SDS011;28754;47.700;7.924;2022-12-18T21:21:16;4.28;;;2.22;;
42614;SDS011;28754;47.700;7.924;2022-12-18T21:24:02;6.47;;;3.47;;
42614;SDS011;28754;47.700;7.924;2022-12-18T21:26:56;6.95;;;3.50;;
42614;SDS011;28754;47.700;7.924;2022-12-18T23:04:21;2.17;;;1.13;;
42614;SDS011;28754;47.700;7.924;2022-12-18T23:10:54;1.20;;;0.95;;
42614;SDS011;28754;47.700;7.924;2022-12-18T23:55:44;2.55;;;1.25;;
42614;SDS011;28754;47.700;7.924;2022-12-18T23:58:31;4.38;;;2.47;;
